Time;durP1;ratioP1;P1;durP2;ratioP2;P2;SDS_P1;SDS_P2;PMS_P1;PMS_P2;Temp;Humidity;BMP_temperature;BMP_pressure;BME280_temperature;BME280_humidity;BME280_pressure;Samples;Min_cycle;Max_cycle;Signal;HPM_P1;HPM_P2
2021/01/12 00:00:49;;;;;;;145.97;50.83;;;;;;;-9.06;67.12;97162.35;1836695;77;26165;-86
2021/01/12 00:03:17;;;;;;;150.80;51.80;;;;;;;-9.10;67.27;97161.70;1826226;77;25825;-85
2021/01/12 00:05:44;;;;;;;139.77;48.63;;;;;;;-9.06;67.46;97161.05;1803833;77;25824;-88
2021/01/12 00:08:12;;;;;;;139.15;47.58;;;;;;;-9.06;67.46;97160.58;1835688;77;25769;-85
2021/01/12 00:10:40;;;;;;;145.17;50.33;;;;;;;-9.05;67.56;97154.84;1834917;77;27482;-84
2021/01/12 00:13:08;;;;;;;138.85;49.10;;;;;;;-9.05;67.51;97152.23;1825234;77;26340;-84
2021/01/12 00:15:35;;;;;;;137.65;49.65;;;;;;;-9.02;67.46;97153.35;1838206;77;25755;-84
2021/01/12 00:18:03;;;;;;;134.32;45.85;;;;;;;-9.05;67.44;97147.00;1841632;77;26717;-83
2021/01/12 00:20:30;;;;;;;133.25;47.78;;;;;;;-9.11;67.53;97146.94;1834444;77;26000;-86
2021/01/12 00:22:57;;;;;;;120.92;45.40;;;;;;;-9.05;67.61;97149.62;1834388;77;27474;-88
2021/01/12 00:25:25;;;;;;;118.85;45.63;;;;;;;-8.98;67.63;97152.23;1827893;77;25713;-83
2021/01/12 00:27:53;;;;;;;125.58;42.90;;;;;;;-8.94;67.68;97146.72;1832966;77;36332;-84
2021/01/12 00:30:22;;;;;;;121.70;44.00;;;;;;;-8.93;67.64;97142.30;1827028;77;25808;-84
2021/01/12 00:32:50;;;;;;;120.92;43.10;;;;;;;-8.94;67.66;97144.10;1832918;77;25673;-83
2021/01/12 00:35:19;;;;;;;121.07;43.83;;;;;;;-8.97;67.62;97143.45;1832891;77;28455;-83
2021/01/12 00:37:46;;;;;;;121.02;42.58;;;;;;;-8.96;67.67;97145.13;1831337;77;25745;-83
2021/01/12 00:40:14;;;;;;;119.47;45.73;;;;;;;-8.99;67.65;97147.94;1832901;77;25731;-84
2021/01/12 00:42:42;;;;;;;128.25;47.70;;;;;;;-8.98;67.69;97152.23;1842413;77;25881;-85
2021/01/12 00:45:10;;;;;;;146.13;49.50;;;;;;;-8.94;67.68;97144.57;1810795;77;25855;-83
2021/01/12 00:47:38;;;;;;;124.67;45.30;;;;;;;-8.90;67.63;97146.03;1826298;77;27478;-84
2021/01/12 00:50:06;;;;;;;119.20;42.67;;;;;;;-8.92;67.50;97142.20;1829479;76;25780;-85
2021/01/12 00:52:34;;;;;;;114.12;42.27;;;;;;;-8.95;67.53;97138.97;1830146;76;25718;-83
2021/01/12 00:55:01;;;;;;;110.03;41.95;;;;;;;-8.92;67.57;97138.75;1837201;77;25823;-86
2021/01/12 00:57:29;;;;;;;106.20;39.33;;;;;;;-8.90;67.53;97143.42;1833964;76;25722;-83
2021/01/12 00:59:56;;;;;;;106.80;40.20;;;;;;;-8.88;67.51;97138.93;1824132;77;27492;-83
2021/01/12 01:02:23;;;;;;;106.75;40.58;;;;;;;-8.90;67.47;97135.57;1829048;77;26177;-83
2021/01/12 01:04:51;;;;;;;98.85;37.05;;;;;;;-8.88;67.50;97140.23;1824390;77;25873;-83
2021/01/12 01:07:19;;;;;;;97.95;37.90;;;;;;;-8.86;67.53;97133.98;1837411;77;25859;-84
2021/01/12 01:09:46;;;;;;;100.80;36.60;;;;;;;-8.88;67.48;97131.09;1827311;77;25849;-84
2021/01/12 01:12:14;;;;;;;100.50;36.95;;;;;;;-8.87;67.44;97134.08;1852334;77;26692;-84
2021/01/12 01:14:41;;;;;;;92.80;35.00;;;;;;;-8.87;67.45;97131.45;1852329;76;25761;-83
2021/01/12 01:17:09;;;;;;;95.20;35.73;;;;;;;-8.84;67.51;97128.65;1852275;77;25860;-84
2021/01/12 01:19:36;;;;;;;98.07;36.75;;;;;;;-8.83;67.48;97131.64;1832509;77;25867;-85
2021/01/12 01:22:03;;;;;;;88.00;33.92;;;;;;;-8.82;67.43;97128.09;1847572;76;25741;-83
2021/01/12 01:24:31;;;;;;;85.15;32.85;;;;;;;-8.84;67.34;97120.80;1852061;77;26672;-84
2021/01/12 01:26:58;;;;;;;87.53;33.80;;;;;;;-8.85;67.37;97121.27;1851844;77;25733;-84
2021/01/12 01:29:26;;;;;;;91.47;33.20;;;;;;;-8.80;67.41;97119.64;1838456;76;25758;-85
2021/01/12 01:31:53;;;;;;;78.62;32.78;;;;;;;-8.87;67.37;97113.14;1817100;77;26758;-83
2021/01/12 01:34:21;;;;;;;75.57;31.62;;;;;;;-8.86;67.50;97115.67;1828287;77;25732;-84
2021/01/12 01:36:48;;;;;;;77.37;30.52;;;;;;;-8.86;67.44;97114.36;1829365;77;27465;-86
2021/01/12 01:39:16;;;;;;;78.85;29.23;;;;;;;-8.85;67.48;97104.73;1845528;77;25743;-84
2021/01/12 01:41:43;;;;;;;80.07;30.85;;;;;;;-8.84;67.60;97115.57;1842894;76;25841;-83
2021/01/12 01:44:10;;;;;;;82.12;29.48;;;;;;;-8.88;67.66;97114.08;1826235;77;25817;-84
2021/01/12 01:46:42;;;;;;;74.37;30.20;;;;;;;-8.94;67.74;97109.27;1851523;77;25690;-83
2021/01/12 01:49:08;;;;;;;73.87;30.35;;;;;;;-8.91;67.85;97114.27;1845258;77;27479;-86
2021/01/12 01:51:35;;;;;;;73.67;29.40;;;;;;;-8.93;67.83;97103.91;1841736;77;26169;-85
2021/01/12 01:54:04;;;;;;;74.55;30.88;;;;;;;-8.92;67.82;97111.28;1841984;77;25812;-83
2021/01/12 01:56:32;;;;;;;77.12;30.77;;;;;;;-8.98;67.71;97098.62;1842004;77;26411;-85
2021/01/12 01:58:59;;;;;;;80.32;29.80;;;;;;;-8.99;67.77;97098.25;1842338;77;25986;-85
2021/01/12 02:01:27;;;;;;;72.75;30.00;;;;;;;-9.00;67.86;97095.26;1808488;77;27482;-83
2021/01/12 02:04:19;;;;;;;67.58;28.70;;;;;;;-8.99;67.89;97099.09;1829183;77;26064;-83
2021/01/12 02:06:50;;;;;;;68.33;26.40;;;;;;;-8.99;67.86;97092.55;1843756;77;25608;-85
2021/01/12 02:09:34;;;;;;;63.50;26.70;;;;;;;-8.99;67.86;97086.01;1845480;76;26671;-83
2021/01/12 02:12:07;;;;;;;64.17;25.35;;;;;;;-9.07;67.86;97089.59;1809413;77;25831;-85
2021/01/12 02:14:38;;;;;;;71.35;27.48;;;;;;;-9.06;67.93;97074.75;1831872;77;27485;-83
2021/01/12 02:17:09;;;;;;;67.15;27.02;;;;;;;-9.10;67.95;97074.09;1835166;77;25683;-84
2021/01/12 02:19:38;;;;;;;73.60;28.50;;;;;;;-9.12;67.98;97061.59;1804597;77;25751;-85
2021/01/12 02:22:09;;;;;;;76.85;28.83;;;;;;;-9.10;68.11;97059.72;1808184;77;25897;-85
2021/01/12 02:24:37;;;;;;;66.67;25.82;;;;;;;-9.05;68.19;97063.32;1825346;77;25697;-83
2021/01/12 02:27:06;;;;;;;65.70;25.77;;;;;;;-8.98;68.23;97065.92;1837428;77;27482;-83
2021/01/12 02:29:34;;;;;;;53.90;22.60;;;;;;;-9.01;68.12;97059.58;1842586;77;26021;-87
2021/01/12 02:32:02;;;;;;;60.48;24.65;;;;;;;-9.06;68.14;97054.67;1815052;77;25741;-86
2021/01/12 02:34:30;;;;;;;68.15;24.65;;;;;;;-9.03;68.25;97064.06;1803475;77;26833;-84
2021/01/12 02:37:00;;;;;;;62.62;25.37;;;;;;;-9.00;68.33;97054.72;1832479;77;25675;-83
2021/01/12 02:39:27;;;;;;;71.62;28.20;;;;;;;-9.01;68.26;97044.73;1835121;77;28420;-83
2021/01/12 02:41:54;;;;;;;66.85;25.85;;;;;;;-8.99;68.36;97038.94;1842557;77;25750;-84
2021/01/12 02:44:25;;;;;;;67.65;25.05;;;;;;;-8.98;68.47;97039.77;1844182;77;25868;-85
2021/01/12 02:46:54;;;;;;;59.38;23.87;;;;;;;-9.01;68.50;97031.66;1824963;77;26473;-83
2021/01/12 02:49:22;;;;;;;62.95;23.62;;;;;;;-9.02;68.57;97022.13;1850423;76;25844;-84
2021/01/12 02:51:49;;;;;;;62.78;23.73;;;;;;;-8.95;68.70;97018.66;1857925;77;27639;-83
2021/01/12 02:54:16;;;;;;;51.25;20.50;;;;;;;-8.86;68.65;97020.66;1857795;77;25744;-84
2021/01/12 02:56:44;;;;;;;48.60;20.12;;;;;;;-8.85;68.47;97015.33;1858015;77;25829;-83
2021/01/12 02:59:11;;;;;;;54.73;20.45;;;;;;;-8.91;68.39;97003.11;1857998;77;25881;-84
2021/01/12 03:01:38;;;;;;;61.42;22.15;;;;;;;-8.92;68.46;97005.36;1858117;77;25665;-83
2021/01/12 03:04:06;;;;;;;56.90;21.65;;;;;;;-8.94;68.47;97002.03;1857957;77;28660;-84
2021/01/12 03:06:33;;;;;;;42.98;19.75;;;;;;;-8.87;68.65;97004.59;1857681;77;25726;-83
2021/01/12 03:09:01;;;;;;;51.50;21.80;;;;;;;-8.85;68.74;96998.33;1857891;77;25756;-83
2021/01/12 03:11:28;;;;;;;50.80;20.57;;;;;;;-8.84;68.74;97000.47;1857857;77;25885;-83
2021/01/12 03:13:57;;;;;;;53.02;20.23;;;;;;;-8.81;68.68;96995.02;1857918;77;25801;-85
2021/01/12 03:16:26;;;;;;;47.70;20.48;;;;;;;-8.81;68.64;96985.86;1857835;77;27478;-84
2021/01/12 03:18:53;;;;;;;53.28;18.95;;;;;;;-8.77;68.81;96980.80;1857752;77;25689;-84
2021/01/12 03:21:20;;;;;;;53.45;20.65;;;;;;;-8.75;68.83;96982.84;1849088;77;25677;-85
2021/01/12 03:23:48;;;;;;;57.45;21.33;;;;;;;-8.70;68.83;96986.47;1836767;77;25817;-83
2021/01/12 03:26:23;;;;;;;49.00;20.17;;;;;;;-8.71;68.70;96983.02;1824333;77;25802;-83
2021/01/12 03:28:50;;;;;;;48.63;20.92;;;;;;;-8.63;68.71;96969.40;1823746;77;26795;-83
2021/01/12 03:31:18;;;;;;;52.10;21.87;;;;;;;-8.58;68.60;96968.63;1824041;77;25878;-83
2021/01/12 03:33:45;;;;;;;58.20;21.60;;;;;;;-8.52;68.67;96969.50;1834002;77;25783;-83
2021/01/12 03:36:13;;;;;;;57.23;23.27;;;;;;;-8.48;68.66;96961.34;1837483;77;25817;-83
2021/01/12 03:38:40;;;;;;;56.40;22.27;;;;;;;-8.41;68.75;96967.83;1824064;77;25767;-85
2021/01/12 03:41:07;;;;;;;53.42;22.25;;;;;;;-8.37;68.69;96958.83;1824085;77;27554;-84
2021/01/12 03:43:35;;;;;;;52.08;20.37;;;;;;;-8.39;68.69;96957.25;1829691;77;26266;-84
2021/01/12 03:46:02;;;;;;;50.80;19.65;;;;;;;-8.35;68.68;96957.88;1841046;77;25949;-83
2021/01/12 03:48:30;;;;;;;51.13;21.82;;;;;;;-8.31;68.61;96959.33;1822512;77;25911;-84
2021/01/12 03:50:57;;;;;;;51.98;20.65;;;;;;;-8.29;68.52;96956.10;1808855;77;25725;-86
2021/01/12 03:53:24;;;;;;;56.58;21.95;;;;;;;-8.32;68.51;96948.48;1808651;77;27533;-84
2021/01/12 03:55:52;;;;;;;58.33;22.67;;;;;;;-8.38;68.47;96944.06;1809439;77;25979;-83
2021/01/12 03:58:19;;;;;;;54.35;23.18;;;;;;;-8.33;68.50;96940.30;1828970;77;25781;-83
2021/01/12 04:00:47;;;;;;;58.60;23.70;;;;;;;-8.34;68.53;96939.45;1811422;77;26364;-83
2021/01/12 04:03:14;;;;;;;52.25;21.85;;;;;;;-8.34;68.43;96947.78;1809505;77;25672;-85
2021/01/12 04:05:41;;;;;;;57.60;22.95;;;;;;;-8.43;68.40;96951.85;1809526;77;27652;-84
2021/01/12 04:08:12;;;;;;;55.25;22.95;;;;;;;-8.54;68.39;96930.34;1809492;77;26212;-83
2021/01/12 04:10:39;;;;;;;52.13;21.82;;;;;;;-8.52;68.66;96932.39;1832771;77;25766;-84
2021/01/12 04:13:07;;;;;;;51.98;22.80;;;;;;;-8.48;68.68;96929.94;1809360;77;25829;-85
2021/01/12 04:15:34;;;;;;;51.37;21.23;;;;;;;-8.51;68.79;96924.91;1809434;77;25785;-83
2021/01/12 04:18:01;;;;;;;50.63;21.65;;;;;;;-8.41;68.98;96929.87;1802411;77;27553;-83
2021/01/12 04:20:29;;;;;;;55.92;24.40;;;;;;;-8.30;68.94;96922.53;1801274;77;25657;-84
2021/01/12 04:22:56;;;;;;;55.88;20.77;;;;;;;-8.18;69.00;96920.84;1817428;77;25763;-83
2021/01/12 04:25:23;;;;;;;50.48;20.85;;;;;;;-8.02;69.11;96921.44;1842470;77;26713;-85
2021/01/12 04:27:51;;;;;;;44.48;20.20;;;;;;;-7.87;69.15;96915.11;1819227;77;25797;-84
2021/01/12 04:30:19;;;;;;;64.72;23.57;;;;;;;-7.72;69.13;96917.07;1826881;77;27475;-83
2021/01/12 04:32:46;;;;;;;55.33;22.75;;;;;;;-7.59;69.12;96913.09;1809376;77;26673;-82
2021/01/12 04:35:13;;;;;;;45.65;20.52;;;;;;;-7.47;69.06;96909.56;1809490;77;25736;-83
2021/01/12 04:37:41;;;;;;;40.08;18.70;;;;;;;-7.34;69.02;96905.09;1809579;77;26338;-84
2021/01/12 04:40:09;;;;;;;44.63;18.87;;;;;;;-7.22;68.87;96899.41;1815401;77;25754;-83
2021/01/12 04:42:36;;;;;;;39.23;16.62;;;;;;;-7.12;68.84;96892.05;1818468;77;27450;-84
2021/01/12 04:45:06;;;;;;;31.97;15.95;;;;;;;-7.03;68.69;96888.75;1804924;78;25762;-83
2021/01/12 04:47:33;;;;;;;36.05;14.70;;;;;;;-6.91;68.61;96892.23;1826847;77;25732;-84
2021/01/12 04:50:04;;;;;;;31.23;14.93;;;;;;;-6.79;68.47;96888.67;1814732;77;25810;-83
2021/01/12 04:52:50;;;;;;;40.78;16.02;;;;;;;-6.65;68.33;96878.43;1809510;77;25750;-82
2021/01/12 04:55:20;;;;;;;45.98;18.73;;;;;;;-6.55;68.24;96875.45;1839838;77;27657;-83
2021/01/12 04:57:48;;;;;;;46.75;21.57;;;;;;;-6.44;68.02;96871.51;1824556;77;25283;-83
2021/01/12 05:00:27;;;;;;;53.85;22.13;;;;;;;-6.38;67.88;96864.92;1809482;77;25696;-83
2021/01/12 05:03:08;;;;;;;57.88;23.67;;;;;;;-6.31;67.76;96859.56;1809420;77;26364;-82
2021/01/12 05:05:38;;;;;;;47.70;19.15;;;;;;;-6.28;67.56;96858.82;1809677;77;25762;-84
2021/01/12 05:08:10;;;;;;;53.55;21.05;;;;;;;-6.22;67.41;96854.41;1828773;77;27456;-83
2021/01/12 05:10:40;;;;;;;42.90;18.62;;;;;;;-6.17;67.39;96854.06;1811937;77;25759;-83
2021/01/12 05:13:12;;;;;;;55.17;23.55;;;;;;;-6.15;67.22;96849.49;1809484;77;25736;-83
2021/01/12 05:15:41;;;;;;;46.23;18.10;;;;;;;-6.15;67.01;96840.77;1809336;77;25821;-82
2021/01/12 05:18:10;;;;;;;43.75;19.05;;;;;;;-6.19;66.92;96831.01;1809451;77;25763;-83
2021/01/12 05:20:47;;;;;;;41.45;17.57;;;;;;;-6.16;66.87;96828.63;1809149;77;27481;-84
2021/01/12 05:23:24;;;;;;;40.40;17.57;;;;;;;-6.13;66.82;96831.81;1809091;77;25715;-83
2021/01/12 05:25:53;;;;;;;39.85;17.20;;;;;;;-6.00;66.80;96826.41;1809204;77;25730;-82
2021/01/12 05:28:21;;;;;;;42.60;17.98;;;;;;;-5.92;66.74;96826.17;1809158;77;26819;-82
2021/01/12 05:30:49;;;;;;;44.65;17.95;;;;;;;-5.88;66.60;96828.05;1809150;77;25715;-84
2021/01/12 05:33:20;;;;;;;48.65;20.70;;;;;;;-5.95;66.51;96817.69;1809050;77;28457;-82
2021/01/12 05:35:49;;;;;;;37.50;14.07;;;;;;;-5.87;66.43;96823.13;1809103;77;26408;-83
2021/01/12 05:38:28;;;;;;;54.30;21.87;;;;;;;-5.82;66.31;96813.08;1809135;77;25717;-82
2021/01/12 05:41:00;;;;;;;44.67;20.25;;;;;;;-5.79;66.20;96806.23;1809285;77;25833;-85
2021/01/12 05:43:41;;;;;;;40.88;17.67;;;;;;;-5.77;66.18;96812.20;1817263;77;31223;-82
2021/01/12 05:46:14;;;;;;;43.35;18.90;;;;;;;-5.71;66.04;96806.47;1820977;77;27560;-83
2021/01/12 05:48:45;;;;;;;38.53;17.30;;;;;;;-5.65;65.93;96802.48;1809023;77;25763;-82
2021/01/12 05:51:15;;;;;;;44.77;18.75;;;;;;;-5.58;65.85;96793.98;1808725;76;25847;-83
2021/01/12 05:53:51;;;;;;;45.83;19.02;;;;;;;-5.50;65.70;96790.22;1811494;77;27128;-85
2021/01/12 05:56:25;;;;;;;37.23;16.82;;;;;;;-5.50;65.59;96788.91;1825401;77;25802;-82
2021/01/12 05:58:55;;;;;;;47.33;19.40;;;;;;;-5.48;65.43;96784.36;1818717;78;27474;-84
2021/01/12 06:01:51;;;;;;;41.25;18.07;;;;;;;-5.45;65.40;96781.48;1820940;76;26279;-83
2021/01/12 06:04:19;;;;;;;44.05;18.70;;;;;;;-5.40;65.30;96774.98;1807440;77;25579;-82
2021/01/12 06:06:53;;;;;;;47.05;17.95;;;;;;;-5.35;65.18;96772.33;1809583;77;26693;-83
2021/01/12 06:09:21;;;;;;;49.83;19.95;;;;;;;-5.29;65.12;96772.28;1813075;77;25803;-83
2021/01/12 06:11:51;;;;;;;38.98;16.82;;;;;;;-5.28;64.97;96768.69;1803626;77;28833;-83
2021/01/12 06:14:23;;;;;;;42.08;16.93;;;;;;;-5.25;64.89;96769.76;1830469;77;25836;-83
2021/01/12 06:16:51;;;;;;;45.20;19.23;;;;;;;-5.22;64.85;96764.24;1799391;77;25806;-82
2021/01/12 06:19:21;;;;;;;42.03;17.32;;;;;;;-5.22;64.65;96766.88;1813059;77;25825;-83
2021/01/12 06:22:00;;;;;;;39.53;17.10;;;;;;;-5.21;64.64;96764.59;1817174;77;25838;-83
2021/01/12 06:24:42;;;;;;;48.58;20.37;;;;;;;-5.20;64.44;96763.64;1809832;76;27584;-83
2021/01/12 06:27:14;;;;;;;38.35;16.27;;;;;;;-5.16;64.37;96756.65;1812860;77;25753;-81
2021/01/12 06:29:49;;;;;;;40.12;16.87;;;;;;;-5.12;64.29;96751.97;1809787;77;25329;-81
2021/01/12 06:32:22;;;;;;;52.50;19.40;;;;;;;-5.04;64.23;96750.82;1824494;77;25940;-81
2021/01/12 06:35:03;;;;;;;108.52;40.00;;;;;;;-5.01;64.07;96740.04;1807024;77;25769;-81
2021/01/12 06:37:37;;;;;;;50.95;19.98;;;;;;;-5.00;63.94;96743.51;1813185;77;27485;-83
2021/01/12 06:40:08;;;;;;;56.02;19.73;;;;;;;-4.99;63.92;96751.75;1821390;77;25705;-83
2021/01/12 06:42:37;;;;;;;47.98;18.80;;;;;;;-4.99;63.88;96753.91;1818990;77;25679;-82
2021/01/12 06:45:08;;;;;;;43.85;17.30;;;;;;;-4.97;63.74;96751.98;1799316;76;27290;-83
2021/01/12 06:47:36;;;;;;;32.45;14.13;;;;;;;-4.97;63.65;96748.03;1799967;77;25672;-84
2021/01/12 06:50:14;;;;;;;41.33;17.67;;;;;;;-4.96;63.61;96747.55;1844370;77;28528;-81
2021/01/12 06:52:50;;;;;;;37.48;16.32;;;;;;;-4.94;63.50;96743.80;1830598;76;26370;-81
2021/01/12 06:55:20;;;;;;;38.55;15.65;;;;;;;-4.92;63.51;96745.82;1842513;77;25772;-82
2021/01/12 06:57:51;;;;;;;36.35;16.35;;;;;;;-4.88;63.36;96745.08;1839402;77;25753;-80
2021/01/12 07:00:22;;;;;;;31.68;14.13;;;;;;;-4.84;63.38;96742.06;1842254;77;25807;-83
2021/01/12 07:02:57;;;;;;;31.62;13.32;;;;;;;-4.80;63.17;96746.08;1841397;76;27488;-81
2021/01/12 07:05:27;;;;;;;29.85;13.45;;;;;;;-4.76;63.10;96740.07;1845062;77;25671;-82
2021/01/12 07:07:54;;;;;;;35.15;14.60;;;;;;;-4.69;63.09;96741.67;1838058;77;26277;-82
2021/01/12 07:10:24;;;;;;;38.45;16.82;;;;;;;-4.67;62.87;96739.27;1852661;77;25822;-81
2021/01/12 07:12:53;;;;;;;33.90;14.20;;;;;;;-4.65;62.82;96741.77;1822874;77;25818;-81
2021/01/12 07:15:24;;;;;;;29.37;12.78;;;;;;;-4.62;62.74;96741.52;1821669;77;27474;-81
2021/01/12 07:17:57;;;;;;;30.52;13.48;;;;;;;-4.58;62.72;96741.09;1823324;77;25769;-83
2021/01/12 07:20:27;;;;;;;33.58;13.78;;;;;;;-4.51;62.57;96736.97;1842937;77;25677;-82
2021/01/12 07:23:09;;;;;;;25.00;10.08;;;;;;;-4.44;62.50;96736.77;1822712;77;26670;-82
2021/01/12 07:25:43;;;;;;;30.70;12.65;;;;;;;-4.41;62.32;96726.45;1822803;77;25646;-81
2021/01/12 07:28:19;;;;;;;29.72;13.25;;;;;;;-4.34;62.34;96720.97;1836518;77;27470;-81
2021/01/12 07:30:51;;;;;;;36.75;13.70;;;;;;;-4.26;62.16;96731.69;1853679;77;25638;-83
2021/01/12 07:33:24;;;;;;;36.28;14.90;;;;;;;-4.20;62.16;96732.44;1846739;77;25293;-82
2021/01/12 07:35:55;;;;;;;25.80;12.23;;;;;;;-4.17;61.95;96724.27;1847077;77;26742;-83
2021/01/12 07:38:26;;;;;;;27.98;12.65;;;;;;;-4.13;61.93;96724.35;1829596;77;25823;-82
2021/01/12 07:40:58;;;;;;;19.07;9.93;;;;;;;-4.07;61.80;96717.68;1854884;77;28459;-81
2021/01/12 07:43:26;;;;;;;31.77;13.78;;;;;;;-4.02;61.74;96721.58;1830947;76;25748;-81
2021/01/12 07:45:56;;;;;;;29.55;13.00;;;;;;;-3.95;61.69;96705.20;1841829;77;25643;-82
2021/01/12 07:48:24;;;;;;;32.40;12.98;;;;;;;-3.92;61.55;96711.03;1833802;77;26713;-83
2021/01/12 07:50:53;;;;;;;31.90;13.38;;;;;;;-3.85;61.40;96706.02;1840495;77;25766;-81
2021/01/12 07:53:21;;;;;;;29.90;13.38;;;;;;;-3.80;61.31;96701.17;1838729;77;27597;-82
2021/01/12 07:55:49;;;;;;;33.38;14.87;;;;;;;-3.72;61.30;96703.45;1824424;77;25733;-82
2021/01/12 07:58:19;;;;;;;36.63;14.55;;;;;;;-3.66;61.27;96701.59;1828147;77;25620;-82
2021/01/12 08:00:48;;;;;;;31.05;13.70;;;;;;;-3.55;61.18;96706.36;1842104;77;25825;-82
2021/01/12 08:03:19;;;;;;;30.05;13.80;;;;;;;-3.47;60.94;96698.07;1829270;77;25810;-81
2021/01/12 08:05:49;;;;;;;35.17;15.55;;;;;;;-3.39;60.91;96701.34;1823130;77;27475;-82
2021/01/12 08:08:17;;;;;;;35.70;14.33;;;;;;;-3.33;60.77;96704.71;1838443;77;25904;-81
2021/01/12 08:10:44;;;;;;;34.90;15.13;;;;;;;-3.20;60.63;96701.77;1836837;77;25525;-81
2021/01/12 08:13:15;;;;;;;34.40;14.40;;;;;;;-3.09;60.49;96699.78;1831902;77;26023;-81
2021/01/12 08:15:44;;;;;;;37.38;15.38;;;;;;;-2.98;60.32;96696.13;1827459;77;25713;-82
2021/01/12 08:18:17;;;;;;;28.50;14.00;;;;;;;-2.87;60.42;96688.02;1840633;77;27487;-83
2021/01/12 08:20:45;;;;;;;29.42;13.03;;;;;;;-2.77;60.19;96683.52;1835431;77;26397;-82
2021/01/12 08:23:18;;;;;;;34.67;14.33;;;;;;;-2.66;60.11;96685.98;1840740;77;25800;-82
2021/01/12 08:25:47;;;;;;;32.30;14.30;;;;;;;-2.57;59.91;96687.73;1825947;77;26844;-81
2021/01/12 08:28:15;;;;;;;29.37;14.35;;;;;;;-2.50;59.64;96683.17;1828851;77;25755;-80
2021/01/12 08:30:43;;;;;;;30.23;14.50;;;;;;;-2.42;59.38;96674.03;1836887;77;28876;-81
2021/01/12 08:33:40;;;;;;;33.42;14.68;;;;;;;-2.36;59.20;96683.99;1820588;77;25387;-81
2021/01/12 08:36:12;;;;;;;31.50;14.87;;;;;;;-2.28;59.13;96678.78;1838883;77;25875;-80
2021/01/12 08:38:48;;;;;;;34.88;15.30;;;;;;;-2.18;58.89;96674.28;1836307;77;25972;-81
2021/01/12 08:41:16;;;;;;;31.87;13.78;;;;;;;-2.04;59.02;96677.70;1817126;77;25712;-80
2021/01/12 08:43:46;;;;;;;29.05;13.68;;;;;;;-1.87;58.73;96675.55;1812490;77;27490;-81
2021/01/12 08:46:13;;;;;;;27.30;13.25;;;;;;;-1.77;58.56;96669.34;1814291;77;25282;-81
2021/01/12 08:48:51;;;;;;;24.77;11.85;;;;;;;-1.70;58.26;96665.11;1814832;77;25808;-80
2021/01/12 08:51:20;;;;;;;25.75;11.63;;;;;;;-1.59;57.92;96663.55;1833858;77;25824;-81
2021/01/12 08:53:49;;;;;;;26.00;12.88;;;;;;;-1.44;57.83;96658.01;1828669;77;25775;-80
2021/01/12 08:56:21;;;;;;;31.15;12.15;;;;;;;-1.32;57.62;96647.50;1839334;76;28529;-81
2021/01/12 08:58:49;;;;;;;21.70;10.25;;;;;;;-1.11;57.72;96651.95;1825041;77;25710;-80
2021/01/12 09:01:31;;;;;;;27.10;10.65;;;;;;;-0.98;57.41;96640.92;1852357;77;26185;-80
2021/01/12 09:04:07;;;;;;;;;;;;;;;-0.85;57.07;96636.52;1850423;76;25768;-81
2021/01/12 09:06:36;;;;;;;25.45;11.68;;;;;;;-0.67;56.58;96625.30;1838178;77;25698;-80
2021/01/12 09:09:11;;;;;;;22.73;11.70;;;;;;;-0.42;56.62;96615.10;1826969;77;27474;-81
2021/01/12 09:11:47;;;;;;;24.50;11.68;;;;;;;-0.24;56.72;96614.16;1837968;77;25680;-82
2021/01/12 09:14:19;;;;;;;28.00;12.18;;;;;;;-0.09;56.03;96608.52;1848817;76;25676;-80
2021/01/12 09:16:47;;;;;;;26.27;12.93;;;;;;;0.07;55.85;96605.05;1824681;77;26779;-80
2021/01/12 09:19:17;;;;;;;42.53;18.85;;;;;;;0.14;55.11;96600.72;1821520;77;25813;-83
2021/01/12 09:21:45;;;;;;;38.58;17.30;;;;;;;0.30;54.93;96596.25;1824781;77;27481;-80
2021/01/12 09:24:20;;;;;;;40.52;17.23;;;;;;;0.44;54.87;96597.40;1840818;77;25404;-81
2021/01/12 09:26:48;;;;;;;36.73;15.23;;;;;;;0.50;54.01;96593.22;1844948;77;25736;-82
2021/01/12 09:29:15;;;;;;;38.73;18.95;;;;;;;0.60;53.49;96592.07;1844053;77;25993;-81
2021/01/12 09:31:47;;;;;;;28.10;14.20;;;;;;;0.62;52.24;96580.75;1844216;77;25860;-81
2021/01/12 09:34:22;;;;;;;31.30;15.48;;;;;;;0.68;52.31;96577.93;1844371;77;30012;-80
2021/01/12 09:36:51;;;;;;;33.95;17.70;;;;;;;0.81;51.98;96582.21;1835876;76;26145;-80
2021/01/12 09:39:18;;;;;;;34.13;17.00;;;;;;;0.95;52.34;96577.52;1847550;76;25757;-82
2021/01/12 09:41:46;;;;;;;39.30;17.25;;;;;;;1.11;52.14;96582.42;1828515;77;26041;-81
2021/01/12 09:44:13;;;;;;;34.18;17.27;;;;;;;1.21;51.96;96577.75;1846680;77;26006;-82
2021/01/12 09:46:41;;;;;;;29.90;15.35;;;;;;;1.22;51.14;96580.70;1842889;77;27473;-81
2021/01/12 09:49:08;;;;;;;27.35;14.20;;;;;;;1.35;51.00;96567.69;1846335;77;26477;-82
2021/01/12 09:51:36;;;;;;;29.65;15.25;;;;;;;1.49;51.08;96572.77;1844375;77;25832;-80
2021/01/12 09:54:04;;;;;;;27.27;13.93;;;;;;;1.70;50.87;96563.15;1836067;77;26297;-82
2021/01/12 09:56:35;;;;;;;26.12;13.25;;;;;;;1.89;50.78;96558.38;1820121;77;25759;-82
2021/01/12 09:59:05;;;;;;;30.40;13.38;;;;;;;2.03;50.47;96554.95;1837146;77;27692;-81
2021/01/12 10:01:33;;;;;;;28.77;14.28;;;;;;;2.17;50.54;96544.31;1842238;77;25799;-81
2021/01/12 10:04:00;;;;;;;27.82;14.73;;;;;;;2.30;50.53;96541.54;1839835;77;25895;-80
2021/01/12 10:06:30;;;;;;;27.67;13.88;;;;;;;2.51;50.16;96529.20;1829236;77;25804;-82
2021/01/12 10:08:57;;;;;;;24.60;13.68;;;;;;;2.73;50.03;96531.45;1838906;77;25669;-83
2021/01/12 10:11:25;;;;;;;28.32;13.80;;;;;;;2.82;49.86;96517.52;1812607;77;27742;-84
2021/01/12 10:13:52;;;;;;;29.75;14.58;;;;;;;2.88;49.42;96506.13;1827290;77;26129;-85
2021/01/12 10:16:24;;;;;;;28.15;14.78;;;;;;;3.02;49.46;96501.27;1803015;76;26346;-83
2021/01/12 10:18:52;;;;;;;30.95;16.35;;;;;;;3.23;49.44;96501.84;1811754;77;25830;-82
2021/01/12 10:21:21;;;;;;;29.42;15.53;;;;;;;3.40;49.29;96502.43;1813370;77;25814;-83
2021/01/12 10:23:49;;;;;;;29.70;15.32;;;;;;;3.62;49.60;96486.78;1811289;77;28456;-82
2021/01/12 10:26:19;;;;;;;25.95;15.30;;;;;;;3.86;49.22;96490.41;1827342;77;25687;-83
2021/01/12 10:28:47;;;;;;;29.00;16.12;;;;;;;3.98;49.31;96482.70;1822001;77;25695;-82
2021/01/12 10:31:18;;;;;;;30.85;15.20;;;;;;;3.96;48.12;96480.22;1807923;77;26640;-83
2021/01/12 10:33:45;;;;;;;30.02;15.58;;;;;;;3.97;48.42;96468.52;1797243;77;25835;-83
2021/01/12 10:36:15;;;;;;;32.83;16.97;;;;;;;3.91;47.59;96465.78;1809555;77;27490;-82
2021/01/12 10:38:44;;;;;;;28.15;16.27;;;;;;;3.85;47.67;96467.39;1808914;77;26350;-81
2021/01/12 10:41:13;;;;;;;32.83;16.62;;;;;;;3.81;47.07;96459.44;1809443;77;25359;-83
2021/01/12 10:43:42;;;;;;;29.95;16.42;;;;;;;3.98;47.72;96456.80;1809509;77;26035;-82
2021/01/12 10:46:10;;;;;;;32.67;15.48;;;;;;;4.22;47.90;96441.39;1809657;77;25794;-82
2021/01/12 10:48:37;;;;;;;29.02;15.60;;;;;;;4.51;47.66;96442.48;1809627;77;27475;-82
2021/01/12 10:51:05;;;;;;;32.93;17.15;;;;;;;4.83;47.18;96428.16;1806096;77;25919;-83
2021/01/12 10:53:32;;;;;;;37.35;18.80;;;;;;;5.05;47.45;96434.52;1818147;77;25804;-81
2021/01/12 10:56:01;;;;;;;28.65;14.53;;;;;;;5.30;47.20;96421.94;1815576;77;26776;-82
2021/01/12 10:58:29;;;;;;;30.80;15.18;;;;;;;5.60;47.20;96409.01;1800859;77;25870;-83
2021/01/12 11:00:57;;;;;;;30.55;15.85;;;;;;;5.96;47.54;96425.54;1817040;78;27536;-82
2021/01/12 11:03:25;;;;;;;27.00;14.03;;;;;;;5.63;45.89;96416.13;1817279;78;25727;-82
2021/01/12 11:05:56;;;;;;;24.63;13.32;;;;;;;5.61;45.28;96405.30;1823053;78;25798;-85
2021/01/12 11:08:25;;;;;;;28.12;14.18;;;;;;;5.50;45.31;96399.22;1815307;78;26707;-82
2021/01/12 11:10:53;;;;;;;23.32;12.50;;;;;;;5.29;45.30;96390.34;1815165;78;25702;-83
2021/01/12 11:13:21;;;;;;;21.17;12.78;;;;;;;5.15;45.33;96387.83;1815463;78;27707;-82
2021/01/12 11:15:49;;;;;;;24.05;12.07;;;;;;;4.84;45.46;96387.00;1816099;78;25804;-82
2021/01/12 11:18:16;;;;;;;20.30;11.33;;;;;;;4.81;45.55;96390.09;1816873;78;25732;-83
2021/01/12 11:20:44;;;;;;;25.15;12.25;;;;;;;4.77;45.21;96384.31;1817544;78;25870;-84
2021/01/12 11:23:12;;;;;;;24.40;12.30;;;;;;;4.74;45.68;96378.53;1815403;78;25703;-83
2021/01/12 11:25:40;;;;;;;20.50;11.70;;;;;;;4.78;45.60;96373.94;1815264;78;27554;-83
2021/01/12 11:28:07;;;;;;;23.70;12.45;;;;;;;4.76;45.63;96372.48;1806641;78;26144;-85
2021/01/12 11:30:35;;;;;;;23.52;11.45;;;;;;;4.59;45.24;96375.48;1810147;78;26314;-83